Boston, Massachusetts
Traffic Map
Current Weather Conditions
Boston, Massachusetts
Broken Clouds
Broken Clouds
28°
Feels Like: 31°
Wind Chill: 28° Ceiling: 25000
Heat Index: 31° Visibility: 10mi
Dew Point: 22° Wind: 7mph
Humidity: 69% Direction: 290° (WNW)
Pressure: 29.8in Gusts: 0mph
Raw Report DataKBOS 022154Z 29006KT 10SM FEW025 SCT070 SCT100 BKN250 28/22 A2980 RMK AO2 TSE10RAE10 SLP089 MDT CU ALQDS P0000 T02830222
Traffic Incident Summary
Active as of:
Severity:
Category:
InformationThere was an issue retrieving the traffic information for this location. Please try a different location or try again shortly.
Advertisements
Track Severe Weather on mobile